Time;durP1;ratioP1;P1;durP2;ratioP2;P2;SDS_P1;SDS_P2;PMS_P1;PMS_P2;Temp;Humidity;BMP_temperature;BMP_pressure;BME280_temperature;BME280_humidity;BME280_pressure;Samples;Min_cycle;Max_cycle;Signal;HPM_P1;HPM_P2
2023/06/08 00:01:18;;;;;;;8.70;6.75;;;;;;;19.50;51.73;101130.38;7393233;19;20089;-71
2023/06/08 00:03:47;;;;;;;9.70;6.85;;;;;;;19.50;51.26;101129.53;7394972;19;20402;-71
2023/06/08 00:06:15;;;;;;;7.70;6.22;;;;;;;19.50;51.01;101129.53;7396811;19;20078;-71
2023/06/08 00:08:44;;;;;;;7.18;6.47;;;;;;;19.50;50.81;101129.53;7399793;19;20036;-71
2023/06/08 00:11:13;;;;;;;8.52;6.32;;;;;;;19.49;50.57;101128.66;7399357;19;20499;-70
2023/06/08 00:13:42;;;;;;;8.85;6.85;;;;;;;19.49;50.83;101122.50;7402157;19;20570;-69
2023/06/08 00:16:13;;;;;;;11.00;7.75;;;;;;;19.47;50.45;101125.22;7401737;19;20070;-71
2023/06/08 00:18:44;;;;;;;10.05;7.13;;;;;;;19.42;50.51;101107.78;7399754;19;20022;-71
2023/06/08 00:21:13;;;;;;;8.98;7.05;;;;;;;19.40;50.75;101121.19;7399674;19;20035;-70
2023/06/08 00:23:42;;;;;;;11.32;7.25;;;;;;;19.40;50.76;101121.19;7398886;19;20482;-70
2023/06/08 00:26:10;;;;;;;11.05;7.00;;;;;;;19.32;51.18;101110.06;7398995;19;20523;-70
2023/06/08 00:28:39;;;;;;;10.02;7.68;;;;;;;19.38;51.15;101125.72;7399326;19;20433;-70
2023/06/08 00:31:07;;;;;;;9.48;6.85;;;;;;;19.36;51.14;101122.25;7399355;19;20019;-70
2023/06/08 00:33:36;;;;;;;8.35;7.10;;;;;;;19.32;51.14;101115.38;7399201;19;20026;-70
2023/06/08 00:36:08;;;;;;;8.73;7.20;;;;;;;19.32;51.33;101118.06;7399347;19;20017;-70
2023/06/08 00:38:36;;;;;;;8.27;6.90;;;;;;;19.30;50.97;101115.47;7399307;19;20039;-70
2023/06/08 00:41:05;;;;;;;7.70;6.95;;;;;;;19.27;51.39;101120.09;7398883;19;20019;-70
2023/06/08 00:43:34;;;;;;;10.45;7.40;;;;;;;19.24;51.43;101122.94;7398787;19;20011;-69
2023/06/08 00:46:03;;;;;;;9.20;7.50;;;;;;;19.22;51.01;101125.66;7401753;19;20064;-70
2023/06/08 00:48:32;;;;;;;8.77;7.82;;;;;;;19.16;50.87;101120.66;7401637;19;20018;-71
2023/06/08 00:51:02;;;;;;;9.43;7.10;;;;;;;19.10;50.83;101116.50;7398699;19;20019;-70
2023/06/08 00:53:35;;;;;;;10.25;7.50;;;;;;;19.04;50.55;101111.50;7398689;19;20127;-70
2023/06/08 00:56:04;;;;;;;10.38;7.38;;;;;;;19.00;50.54;101117.94;7401438;19;20038;-70
2023/06/08 00:58:33;;;;;;;8.68;7.80;;;;;;;18.96;50.78;101114.56;7398554;19;20022;-70
2023/06/08 01:01:03;;;;;;;8.25;7.40;;;;;;;18.94;50.60;101112.94;7398355;19;20085;-70
2023/06/08 01:03:35;;;;;;;9.95;7.65;;;;;;;18.93;51.03;101114.75;7400548;19;20011;-70
2023/06/08 01:06:08;;;;;;;7.90;7.03;;;;;;;18.88;50.71;101106.09;7398008;19;20011;-70
2023/06/08 01:08:53;;;;;;;8.48;7.10;;;;;;;18.89;50.98;101106.03;7402565;19;20022;-70
2023/06/08 01:11:32;;;;;;;8.23;7.40;;;;;;;18.85;51.17;101098.28;7399624;19;20019;-70
2023/06/08 01:14:08;;;;;;;8.20;7.40;;;;;;;18.82;51.40;101103.75;7393130;19;20022;-67
2023/06/08 01:16:40;;;;;;;10.85;8.10;;;;;;;18.77;51.05;101097.81;7399714;19;20032;-66
2023/06/08 01:19:11;;;;;;;10.75;8.30;;;;;;;18.71;51.18;101094.50;7398871;19;20026;-66
2023/06/08 01:21:58;;;;;;;9.77;8.65;;;;;;;18.66;51.35;101093.88;7400037;19;20022;-67
2023/06/08 01:24:35;;;;;;;9.13;8.20;;;;;;;18.59;51.66;101091.59;7398301;19;20031;-67
2023/06/08 01:27:06;;;;;;;8.55;7.72;;;;;;;18.53;51.70;101090.13;7399841;19;20489;-67
2023/06/08 01:29:35;;;;;;;10.65;8.32;;;;;;;18.48;51.98;101084.19;7398148;19;20078;-66
2023/06/08 01:32:04;;;;;;;11.32;8.32;;;;;;;18.42;52.17;101087.16;7399475;19;20014;-67
2023/06/08 01:34:33;;;;;;;9.25;8.27;;;;;;;18.39;51.81;101086.34;7397909;19;20039;-66
2023/06/08 01:37:09;;;;;;;9.90;7.85;;;;;;;18.38;52.30;101079.31;7399039;19;20021;-67
2023/06/08 01:39:48;;;;;;;9.77;8.52;;;;;;;18.37;51.97;101085.59;7399421;19;20010;-67
2023/06/08 01:42:21;;;;;;;10.68;7.70;;;;;;;18.36;52.29;101080.31;7400117;19;20025;-67
2023/06/08 01:45:01;;;;;;;9.23;7.53;;;;;;;18.35;52.58;101078.59;7399643;19;20010;-67
2023/06/08 01:47:36;;;;;;;13.73;8.88;;;;;;;18.34;52.57;101075.09;7399090;19;20018;-67
2023/06/08 01:50:08;;;;;;;10.77;8.60;;;;;;;18.31;52.48;101077.91;7401339;19;20024;-66
2023/06/08 01:52:37;;;;;;;11.13;8.45;;;;;;;18.28;52.31;101077.19;7397360;19;20011;-65
2023/06/08 01:55:16;;;;;;;11.85;8.30;;;;;;;18.23;52.17;101072.09;7399194;19;20014;-65
2023/06/08 01:57:45;;;;;;;9.93;8.93;;;;;;;18.17;52.52;101073.28;7398142;19;20030;-65
2023/06/08 02:00:15;;;;;;;11.70;8.48;;;;;;;18.13;52.30;101082.31;7399355;19;20022;-65
2023/06/08 02:02:44;;;;;;;8.70;7.75;;;;;;;18.07;51.89;101072.84;7400182;19;20011;-66
2023/06/08 02:05:14;;;;;;;12.15;8.38;;;;;;;18.03;51.76;101076.59;7396405;19;20371;-66
2023/06/08 02:07:44;;;;;;;9.57;8.32;;;;;;;18.01;51.94;101073.13;7399203;19;20018;-66
2023/06/08 02:10:16;;;;;;;9.02;8.10;;;;;;;17.97;52.15;101073.34;7396993;19;20010;-65
2023/06/08 02:12:45;;;;;;;8.40;7.65;;;;;;;17.98;51.96;101078.56;7396830;19;20113;-66
2023/06/08 02:15:13;;;;;;;8.45;7.57;;;;;;;17.96;51.89;101076.94;7396462;19;20032;-65
2023/06/08 02:17:42;;;;;;;9.15;8.20;;;;;;;17.95;52.26;101077.88;7396999;19;20022;-66
2023/06/08 02:20:11;;;;;;;10.55;7.65;;;;;;;17.92;52.29;101078.88;7398427;19;20078;-65
2023/06/08 02:22:40;;;;;;;8.48;7.60;;;;;;;17.89;52.69;101074.56;7395609;19;20151;-66
2023/06/08 02:25:11;;;;;;;11.60;7.90;;;;;;;17.87;52.58;101078.22;7397776;19;20495;-66
2023/06/08 02:27:43;;;;;;;8.38;7.57;;;;;;;17.85;52.34;101082.72;7397613;19;20014;-65
2023/06/08 02:30:14;;;;;;;9.40;8.02;;;;;;;17.82;51.99;101075.78;7397346;19;20077;-65
2023/06/08 02:32:45;;;;;;;8.48;7.57;;;;;;;17.79;52.42;101070.59;7397241;19;20478;-67
2023/06/08 02:35:14;;;;;;;8.55;7.63;;;;;;;17.78;51.98;101073.31;7397887;19;20011;-67
2023/06/08 02:37:43;;;;;;;11.30;8.10;;;;;;;17.75;52.32;101077.00;7396150;19;20085;-67
2023/06/08 02:40:13;;;;;;;8.98;8.07;;;;;;;17.71;52.33;101076.25;7397004;19;20038;-66
2023/06/08 02:42:44;;;;;;;8.70;7.35;;;;;;;17.67;52.67;101085.31;7395226;19;20502;-67
2023/06/08 02:45:13;;;;;;;9.15;8.25;;;;;;;17.64;53.00;101081.94;7395360;19;20436;-67
2023/06/08 02:47:41;;;;;;;7.82;7.03;;;;;;;17.59;53.14;101085.66;7397373;19;20026;-67
2023/06/08 02:50:10;;;;;;;11.27;7.40;;;;;;;17.56;53.12;101080.47;7397265;19;20027;-66
2023/06/08 02:52:39;;;;;;;7.63;6.85;;;;;;;17.49;52.76;101084.38;7396671;19;20019;-67
2023/06/08 02:55:08;;;;;;;8.82;6.85;;;;;;;17.43;52.96;101084.63;7397293;19;20029;-65
2023/06/08 02:57:38;;;;;;;9.07;7.95;;;;;;;17.36;53.29;101088.47;7395155;19;20121;-66
2023/06/08 03:00:12;;;;;;;10.10;8.45;;;;;;;17.28;53.35;101080.88;7396596;19;20541;-65
2023/06/08 03:02:41;;;;;;;;;;;;;;;17.21;53.41;101087.38;7397116;19;20366;-66
2023/06/08 03:05:10;;;;;;;14.10;9.73;;;;;;;17.14;53.65;101102.69;7396812;19;19946;-65
2023/06/08 03:07:40;;;;;;;12.15;9.65;;;;;;;17.04;54.15;101107.53;7396541;19;20035;-66
2023/06/08 03:10:10;;;;;;;11.38;9.55;;;;;;;16.99;54.95;101098.06;7396524;19;20027;-65
2023/06/08 03:12:45;;;;;;;12.10;10.90;;;;;;;16.92;55.25;101097.44;7394646;19;20508;-67
2023/06/08 03:15:22;;;;;;;13.07;11.48;;;;;;;16.86;55.25;101103.84;7394841;19;20358;-66
2023/06/08 03:17:52;;;;;;;13.23;11.82;;;;;;;16.80;55.65;101097.97;7395213;19;20376;-67
2023/06/08 03:20:21;;;;;;;13.90;11.60;;;;;;;16.74;55.91;101101.72;7396256;19;20019;-67
2023/06/08 03:22:49;;;;;;;12.30;10.50;;;;;;;16.70;56.05;101097.47;7394360;19;20026;-67
2023/06/08 03:25:21;;;;;;;12.48;10.85;;;;;;;16.66;56.05;101091.44;7394605;19;20022;-67
2023/06/08 03:27:49;;;;;;;12.40;11.10;;;;;;;16.64;56.02;101100.38;7395757;19;20010;-66
2023/06/08 03:30:20;;;;;;;11.77;9.80;;;;;;;16.60;56.08;101092.56;7395907;19;20035;-66
2023/06/08 03:32:51;;;;;;;10.15;9.15;;;;;;;16.57;56.21;101092.69;7395707;19;20018;-66
2023/06/08 03:35:20;;;;;;;13.32;9.57;;;;;;;16.56;55.82;101100.69;7394573;19;20018;-67
2023/06/08 03:37:49;;;;;;;12.75;9.25;;;;;;;16.56;55.57;101092.75;7394665;19;20095;-66
2023/06/08 03:40:17;;;;;;;11.77;8.70;;;;;;;16.56;55.67;101095.41;7393173;19;20031;-67
2023/06/08 03:42:45;;;;;;;9.98;8.23;;;;;;;16.58;55.13;101088.22;7395029;19;20071;-66
2023/06/08 03:45:14;;;;;;;9.32;8.38;;;;;;;16.59;54.73;101089.97;7394847;19;20015;-66
2023/06/08 03:47:45;;;;;;;17.58;13.48;;;;;;;16.60;55.01;101091.69;7395252;19;20018;-66
2023/06/08 03:50:14;;;;;;;12.52;8.80;;;;;;;16.62;54.24;101084.56;7395850;19;20502;-66
2023/06/08 03:52:43;;;;;;;10.13;7.65;;;;;;;16.63;54.18;101088.94;7395346;19;20019;-67
2023/06/08 03:55:12;;;;;;;11.15;7.82;;;;;;;16.66;54.00;101090.59;7394875;19;20051;-67
2023/06/08 03:57:41;;;;;;;8.77;7.88;;;;;;;16.69;54.06;101090.44;7393588;19;20014;-65
2023/06/08 04:00:11;;;;;;;11.38;7.68;;;;;;;16.70;53.99;101090.38;7394746;19;20078;-65
2023/06/08 04:02:40;;;;;;;10.30;7.95;;;;;;;16.73;53.91;101092.91;7394776;19;20023;-65
2023/06/08 04:05:13;;;;;;;9.40;8.48;;;;;;;16.75;54.16;101084.91;7393168;19;20090;-66
2023/06/08 04:07:42;;;;;;;10.65;8.70;;;;;;;16.75;54.14;101090.19;7395083;19;20014;-66
2023/06/08 04:10:12;;;;;;;11.35;8.88;;;;;;;16.73;54.09;101084.97;7394681;19;20038;-66
2023/06/08 04:12:40;;;;;;;10.68;8.88;;;;;;;16.74;54.05;101088.47;7394329;19;20494;-68
2023/06/08 04:15:11;;;;;;;12.30;8.70;;;;;;;16.70;54.05;101074.47;7392913;19;20018;-67
2023/06/08 04:17:41;;;;;;;10.32;9.27;;;;;;;16.75;54.21;101083.09;7393721;19;20011;-66
2023/06/08 04:20:13;;;;;;;9.85;8.75;;;;;;;16.76;53.68;101081.31;7392790;19;20028;-66
2023/06/08 04:22:42;;;;;;;10.93;9.10;;;;;;;16.76;53.77;101087.47;7394992;19;20019;-67
2023/06/08 04:25:11;;;;;;;11.35;9.30;;;;;;;16.77;53.74;101086.56;7394891;19;20027;-66
2023/06/08 04:27:40;;;;;;;10.32;8.65;;;;;;;16.81;53.90;101083.75;7394349;19;20030;-66
2023/06/08 04:30:10;;;;;;;10.43;8.68;;;;;;;16.83;53.77;101085.41;7394561;19;20022;-66
2023/06/08 04:32:38;;;;;;;11.43;9.35;;;;;;;16.84;53.69;101079.19;7394525;19;20026;-67
2023/06/08 04:35:07;;;;;;;11.60;8.70;;;;;;;16.87;53.57;101084.38;7394088;19;20018;-67
2023/06/08 04:37:39;;;;;;;9.60;8.15;;;;;;;16.91;53.44;101083.34;7393483;19;20432;-66
2023/06/08 04:40:09;;;;;;;9.43;8.50;;;;;;;16.93;53.10;101081.50;7391732;19;20488;-67
2023/06/08 04:42:39;;;;;;;9.82;8.00;;;;;;;16.98;52.91;101078.63;7391977;19;20019;-67
2023/06/08 04:45:09;;;;;;;12.07;8.80;;;;;;;17.03;52.61;101073.16;7393899;19;20019;-66
2023/06/08 04:47:40;;;;;;;16.85;9.75;;;;;;;17.06;52.41;101080.94;7393349;19;20082;-66
2023/06/08 04:50:09;;;;;;;10.18;8.10;;;;;;;17.10;51.79;101075.47;7393919;19;20018;-66
2023/06/08 04:52:45;;;;;;;13.07;7.88;;;;;;;17.17;51.69;101083.16;7397623;19;20020;-67
2023/06/08 04:55:14;;;;;;;12.90;7.60;;;;;;;17.22;51.18;101078.50;7400200;19;20077;-66
2023/06/08 04:57:43;;;;;;;8.38;7.35;;;;;;;17.28;50.63;101078.22;7397504;19;20022;-66
2023/06/08 05:00:13;;;;;;;10.80;8.30;;;;;;;17.35;50.37;101078.81;7396863;19;20029;-66
2023/06/08 05:02:42;;;;;;;10.48;7.28;;;;;;;17.41;49.91;101087.38;7399838;19;20094;-66
2023/06/08 05:05:12;;;;;;;8.65;6.88;;;;;;;17.50;49.61;101087.88;7397602;19;20019;-65
2023/06/08 05:07:44;;;;;;;9.93;6.40;;;;;;;17.55;48.89;101086.75;7399688;19;20028;-65
2023/06/08 05:10:13;;;;;;;9.20;6.50;;;;;;;17.61;48.88;101084.75;7399740;19;20018;-65
2023/06/08 05:12:41;;;;;;;8.40;7.43;;;;;;;17.67;48.67;101084.47;7399180;19;20090;-66
2023/06/08 05:15:10;;;;;;;10.10;7.30;;;;;;;17.71;48.52;101084.22;7397061;19;20010;-65
2023/06/08 05:17:39;;;;;;;7.95;6.75;;;;;;;17.79;47.97;101077.72;7396596;19;20395;-66
2023/06/08 05:20:09;;;;;;;9.15;7.15;;;;;;;17.85;48.16;101082.72;7395725;19;20030;-66
2023/06/08 05:22:38;;;;;;;11.43;6.85;;;;;;;17.92;47.90;101079.72;7399025;19;20014;-67
2023/06/08 05:25:10;;;;;;;11.10;6.57;;;;;;;17.99;47.82;101076.81;7399581;19;20019;-65
2023/06/08 05:27:38;;;;;;;8.82;6.28;;;;;;;18.06;47.40;101076.44;7399315;19;20015;-65
2023/06/08 05:30:08;;;;;;;8.13;6.78;;;;;;;18.13;47.22;101077.00;7398829;19;20074;-66
2023/06/08 05:32:36;;;;;;;8.15;6.10;;;;;;;18.19;46.87;101076.69;7398538;19;20090;-65
2023/06/08 05:35:05;;;;;;;7.65;5.85;;;;;;;18.26;46.56;101071.97;7398015;19;20477;-65
2023/06/08 05:37:33;;;;;;;5.88;5.25;;;;;;;18.32;46.12;101068.97;7397037;19;20044;-66
2023/06/08 05:40:02;;;;;;;8.60;5.85;;;;;;;18.38;45.45;101066.03;7399188;19;20077;-66
2023/06/08 05:42:33;;;;;;;7.20;5.00;;;;;;;18.47;44.65;101069.19;7396661;19;20011;-65
2023/06/08 05:45:02;;;;;;;6.63;5.45;;;;;;;18.54;44.25;101066.13;7395910;19;20094;-67
2023/06/08 05:47:30;;;;;;;5.97;5.30;;;;;;;18.63;43.68;101066.63;7398133;19;20018;-66
2023/06/08 05:49:59;;;;;;;8.13;5.05;;;;;;;18.72;43.45;101066.16;7395273;19;20431;-66
2023/06/08 05:52:27;;;;;;;11.25;5.25;;;;;;;18.81;43.25;101062.16;7399235;19;20098;-66
2023/06/08 05:54:55;;;;;;;7.60;5.22;;;;;;;18.90;43.08;101059.06;7396742;19;20500;-66
2023/06/08 05:57:24;;;;;;;9.50;5.00;;;;;;;19.00;42.50;101064.75;7398305;19;20015;-66
2023/06/08 05:59:55;;;;;;;6.80;4.88;;;;;;;19.08;42.67;101062.53;7396463;19;20086;-66
2023/06/08 06:02:23;;;;;;;5.65;4.70;;;;;;;19.17;42.22;101067.41;7398975;19;20018;-66
2023/06/08 06:04:52;;;;;;;8.43;5.40;;;;;;;19.26;42.05;101068.72;7394459;19;20078;-66
2023/06/08 06:07:20;;;;;;;6.50;5.05;;;;;;;19.34;42.15;101068.28;7395349;19;20014;-66
2023/06/08 06:09:49;;;;;;;7.22;4.82;;;;;;;19.42;41.63;101068.72;7398524;19;20022;-66
2023/06/08 06:12:17;;;;;;;5.43;4.88;;;;;;;19.51;41.78;101062.06;7398022;19;20111;-66
2023/06/08 06:14:46;;;;;;;5.05;4.07;;;;;;;19.59;41.60;101054.53;7395827;19;20082;-65
2023/06/08 06:17:17;;;;;;;8.80;4.72;;;;;;;19.68;41.08;101056.66;7395848;19;20070;-65
2023/06/08 06:19:46;;;;;;;7.00;4.40;;;;;;;19.78;40.89;101050.84;7395555;19;20018;-66
2023/06/08 06:22:15;;;;;;;9.13;4.38;;;;;;;19.85;40.40;101069.09;7397823;19;20078;-67
2023/06/08 06:24:43;;;;;;;6.20;4.57;;;;;;;19.91;39.66;101064.38;7396024;19;20074;-66
2023/06/08 06:27:12;;;;;;;5.82;4.03;;;;;;;19.98;39.40;101065.72;7397415;19;20090;-66
2023/06/08 06:29:41;;;;;;;4.60;3.92;;;;;;;20.06;39.30;101068.81;7397562;19;20017;-67
2023/06/08 06:32:11;;;;;;;5.47;4.60;;;;;;;20.12;39.28;101059.63;7397437;19;20015;-66
2023/06/08 06:34:45;;;;;;;8.25;4.72;;;;;;;20.20;38.54;101072.53;7395560;19;20039;-66
2023/06/08 06:37:13;;;;;;;7.35;4.38;;;;;;;20.27;38.75;101071.19;7395421;19;20339;-66
2023/06/08 06:39:42;;;;;;;7.25;4.40;;;;;;;20.34;38.58;101067.25;7394960;19;20257;-67
2023/06/08 06:42:11;;;;;;;5.82;4.07;;;;;;;20.42;38.73;101067.69;7395336;19;20513;-66
2023/06/08 06:44:39;;;;;;;5.82;4.53;;;;;;;20.49;39.01;101068.16;7395832;19;20018;-67
2023/06/08 06:47:08;;;;;;;7.00;4.60;;;;;;;20.57;38.67;101063.22;7396179;19;20413;-66
2023/06/08 06:49:37;;;;;;;5.40;4.85;;;;;;;20.65;39.14;101070.81;7396716;19;20021;-64
2023/06/08 06:52:08;;;;;;;7.97;4.47;;;;;;;20.72;38.87;101073.97;7395287;19;20022;-65
2023/06/08 06:54:37;;;;;;;19.85;6.28;;;;;;;20.79;39.16;101070.84;7394722;19;20502;-67
2023/06/08 06:57:06;;;;;;;12.82;5.00;;;;;;;20.87;38.99;101069.56;7395943;19;20078;-67
2023/06/08 06:59:34;;;;;;;6.80;4.55;;;;;;;20.94;38.74;101069.09;7394451;19;20382;-67
2023/06/08 07:02:03;;;;;;;5.50;4.20;;;;;;;21.01;39.18;101072.22;7396094;19;20074;-66
2023/06/08 07:04:31;;;;;;;8.27;4.35;;;;;;;21.07;39.09;101068.34;7394289;19;20014;-67
2023/06/08 07:07:00;;;;;;;7.22;5.22;;;;;;;21.15;38.72;101069.59;7396052;19;20378;-66
2023/06/08 07:09:32;;;;;;;7.72;4.75;;;;;;;21.22;38.77;101064.72;7396175;19;20026;-66
2023/06/08 07:12:00;;;;;;;12.38;4.95;;;;;;;21.29;38.60;101059.88;7395936;19;20491;-66
2023/06/08 07:14:35;;;;;;;6.05;4.70;;;;;;;21.36;38.93;101058.53;7392698;19;20481;-65
2023/06/08 07:17:03;;;;;;;7.88;4.28;;;;;;;21.46;39.09;101061.50;7393725;19;20580;-66
2023/06/08 07:19:33;;;;;;;6.00;4.20;;;;;;;21.52;39.37;101045.09;7394746;19;20189;-64
2023/06/08 07:22:01;;;;;;;5.97;4.60;;;;;;;21.62;39.20;101058.72;7393570;19;20082;-66
2023/06/08 07:24:32;;;;;;;9.02;4.82;;;;;;;21.72;39.00;101057.19;7394330;19;20035;-66
2023/06/08 07:27:01;;;;;;;5.07;4.35;;;;;;;21.83;39.24;101058.34;7396091;19;20082;-66
2023/06/08 07:29:29;;;;;;;7.10;4.90;;;;;;;21.90;38.97;101049.81;7395421;19;20419;-66
2023/06/08 07:31:59;;;;;;;6.50;4.07;;;;;;;22.02;39.16;101044.66;7395514;19;20098;-66
2023/06/08 07:34:28;;;;;;;6.47;4.53;;;;;;;22.17;39.27;101045.44;7393655;19;20101;-66
2023/06/08 07:36:56;;;;;;;6.03;4.22;;;;;;;22.29;38.96;101039.28;7395464;19;20386;-66
2023/06/08 07:39:34;;;;;;;7.20;4.68;;;;;;;22.43;38.50;101039.25;7395513;19;20035;-67
2023/06/08 07:42:03;;;;;;;10.35;4.93;;;;;;;22.56;38.42;101044.63;7395827;19;20006;-66
2023/06/08 07:44:32;;;;;;;12.52;4.68;;;;;;;22.68;38.17;101044.75;7393824;19;20018;-66
2023/06/08 07:47:00;;;;;;;8.07;4.65;;;;;;;22.80;38.48;101041.25;7394902;19;20085;-67
2023/06/08 07:49:30;;;;;;;6.53;4.40;;;;;;;22.90;37.85;101044.16;7394757;19;20427;-67
2023/06/08 07:51:59;;;;;;;7.43;4.43;;;;;;;23.01;37.83;101048.72;7393377;19;20047;-67
2023/06/08 07:54:27;;;;;;;7.65;4.20;;;;;;;23.12;37.96;101042.66;7393513;19;20028;-67
2023/06/08 07:56:58;;;;;;;8.10;4.35;;;;;;;23.22;37.61;101039.22;7394153;19;20557;-67
2023/06/08 07:59:28;;;;;;;7.05;4.00;;;;;;;23.32;37.96;101041.28;7393397;19;20070;-68
2023/06/08 08:01:56;;;;;;;6.15;4.57;;;;;;;23.41;37.73;101040.59;7392203;19;20039;-67
2023/06/08 08:04:25;;;;;;;6.63;4.00;;;;;;;23.51;37.49;101038.13;7392728;19;20067;-68
2023/06/08 08:06:53;;;;;;;6.63;4.20;;;;;;;23.58;37.48;101042.94;7391916;19;20036;-65
2023/06/08 08:09:21;;;;;;;6.95;4.38;;;;;;;23.65;37.03;101045.19;7394183;19;20090;-67
2023/06/08 08:11:50;;;;;;;9.20;3.97;;;;;;;23.71;36.87;101037.53;7392504;19;20552;-67
2023/06/08 08:14:21;;;;;;;4.78;3.92;;;;;;;23.78;36.49;101029.91;7392703;19;20081;-67
2023/06/08 08:16:50;;;;;;;9.00;4.32;;;;;;;23.84;36.46;101037.50;7393024;19;20074;-69
2023/06/08 08:19:18;;;;;;;7.05;4.78;;;;;;;23.90;36.89;101037.03;7392412;19;20019;-66
2023/06/08 08:21:47;;;;;;;4.82;3.97;;;;;;;23.96;36.36;101041.16;7394151;19;20014;-67
2023/06/08 08:24:15;;;;;;;7.35;4.45;;;;;;;24.02;36.22;101037.13;7391782;19;20092;-67
2023/06/08 08:26:44;;;;;;;8.25;4.65;;;;;;;24.07;36.68;101037.66;7395650;19;20082;-67
2023/06/08 08:29:12;;;;;;;6.15;4.68;;;;;;;24.13;36.36;101039.88;7401519;19;20194;-67
2023/06/08 08:31:44;;;;;;;8.32;4.88;;;;;;;24.19;35.75;101038.56;7398527;19;20116;-67
2023/06/08 08:34:13;;;;;;;9.18;4.50;;;;;;;24.25;35.56;101035.41;7398904;19;20495;-67
2023/06/08 08:36:41;;;;;;;5.72;4.05;;;;;;;24.31;35.67;101034.09;7398017;19;20014;-66
2023/06/08 08:39:11;;;;;;;9.05;4.78;;;;;;;24.37;35.73;101037.16;7397697;19;20017;-65
2023/06/08 08:41:43;;;;;;;7.00;3.92;;;;;;;24.44;34.73;101034.91;7397665;19;20014;-66
2023/06/08 08:44:12;;;;;;;7.30;3.63;;;;;;;24.51;34.99;101043.31;7399522;19;20415;-67
2023/06/08 08:46:45;;;;;;;7.07;4.40;;;;;;;24.57;34.33;101042.84;7397491;19;20521;-66
2023/06/08 08:49:16;;;;;;;7.37;4.37;;;;;;;24.63;34.46;101036.16;7400898;19;20018;-66
2023/06/08 08:51:49;;;;;;;10.80;4.70;;;;;;;24.69;34.65;101033.03;7400322;19;20463;-67
2023/06/08 08:54:25;;;;;;;8.23;4.30;;;;;;;24.78;34.49;101034.16;7398243;19;20031;-67
2023/06/08 08:56:57;;;;;;;10.93;4.72;;;;;;;24.85;33.91;101038.94;7400500;19;20486;-65
2023/06/08 08:59:27;;;;;;;8.77;4.43;;;;;;;24.92;34.29;101033.09;7399822;19;20034;-66
2023/06/08 09:01:58;;;;;;;8.50;4.50;;;;;;;24.96;33.80;101032.72;7400572;19;20027;-66
2023/06/08 09:04:26;;;;;;;5.72;3.80;;;;;;;25.04;33.77;101032.13;7397843;19;20426;-67
2023/06/08 09:06:55;;;;;;;6.15;4.30;;;;;;;25.12;33.64;101021.63;7399740;19;20506;-67
2023/06/08 09:09:24;;;;;;;6.60;3.92;;;;;;;25.20;33.16;101019.19;7401829;19;20006;-67
2023/06/08 09:11:59;;;;;;;10.20;3.88;;;;;;;25.29;33.24;101022.16;7400181;19;20039;-67
2023/06/08 09:14:28;;;;;;;7.47;4.60;;;;;;;25.36;32.87;101023.38;7397174;19;20026;-66
2023/06/08 09:17:01;;;;;;;5.80;4.43;;;;;;;25.44;32.80;101014.69;7400337;19;20094;-66
2023/06/08 09:19:32;;;;;;;5.88;3.83;;;;;;;25.52;32.53;101017.63;7396749;19;20014;-66
2023/06/08 09:22:01;;;;;;;6.78;3.92;;;;;;;25.57;32.60;101012.72;7397647;19;20019;-66
2023/06/08 09:24:29;;;;;;;5.63;3.67;;;;;;;25.62;31.80;101005.16;7397513;19;20015;-66
2023/06/08 09:26:59;;;;;;;12.70;4.85;;;;;;;25.66;31.55;101011.97;7399928;19;20086;-66
2023/06/08 09:29:39;;;;;;;8.70;4.47;;;;;;;25.73;31.56;101009.66;7397392;19;20018;-66
2023/06/08 09:32:12;;;;;;;5.63;3.58;;;;;;;25.78;31.59;101003.88;7399217;19;20082;-67
2023/06/08 09:34:55;;;;;;;9.38;4.18;;;;;;;25.86;31.31;101004.97;7396443;19;20489;-67
2023/06/08 09:37:29;;;;;;;7.68;4.40;;;;;;;25.94;31.18;101011.53;7396397;19;20111;-67
2023/06/08 09:39:58;;;;;;;6.32;3.95;;;;;;;25.98;31.35;101003.13;7394092;19;20480;-66
2023/06/08 09:42:43;;;;;;;7.75;4.07;;;;;;;26.06;31.01;101001.63;7399423;19;20023;-68
2023/06/08 09:45:17;;;;;;;7.20;4.40;;;;;;;26.11;30.53;101002.97;7399733;19;20018;-67
2023/06/08 09:47:48;;;;;;;7.85;4.05;;;;;;;26.16;30.80;101000.75;7397287;19;20011;-67
2023/06/08 09:50:18;;;;;;;7.05;4.07;;;;;;;26.24;30.70;101004.63;7396721;19;20085;-67
2023/06/08 09:52:50;;;;;;;6.05;4.00;;;;;;;26.31;30.66;100997.72;7399310;19;20014;-68
2023/06/08 09:55:20;;;;;;;6.55;4.43;;;;;;;26.37;30.33;100988.31;7399415;19;20021;-67
2023/06/08 09:57:52;;;;;;;7.35;4.47;;;;;;;26.44;30.04;100990.34;7396617;19;20025;-68
2023/06/08 10:00:24;;;;;;;6.25;3.90;;;;;;;26.52;30.04;100994.22;7397867;19;20038;-67
2023/06/08 10:03:09;;;;;;;6.82;4.10;;;;;;;26.60;30.20;100991.69;7396033;19;20032;-66
2023/06/08 10:05:41;;;;;;;6.38;3.88;;;;;;;26.68;29.88;100989.22;7399019;19;20022;-67
2023/06/08 10:08:12;;;;;;;8.98;4.28;;;;;;;26.75;29.50;100993.09;7398602;19;20025;-67
2023/06/08 10:10:41;;;;;;;5.80;4.30;;;;;;;26.81;29.67;100992.56;7396081;19;20037;-67
2023/06/08 10:13:13;;;;;;;6.43;4.30;;;;;;;26.84;29.49;100991.44;7397772;19;20022;-66
2023/06/08 10:15:42;;;;;;;8.95;4.50;;;;;;;26.87;29.10;100996.56;7395949;19;20027;-67
2023/06/08 10:18:15;;;;;;;6.05;4.35;;;;;;;26.96;29.36;100981.47;7395614;19;20351;-67
2023/06/08 10:20:44;;;;;;;5.57;3.97;;;;;;;27.07;29.40;100984.06;7396835;19;20054;-67
2023/06/08 10:23:14;;;;;;;8.55;4.38;;;;;;;27.19;29.14;100975.88;7397565;19;20015;-67
2023/06/08 10:25:44;;;;;;;5.75;4.00;;;;;;;27.27;28.88;100976.03;7397636;19;20014;-67
2023/06/08 10:28:14;;;;;;;6.03;4.10;;;;;;;27.34;28.82;100971.81;7395968;19;20014;-67
2023/06/08 10:30:43;;;;;;;6.85;3.58;;;;;;;27.42;28.56;100969.34;7398278;19;20041;-66
2023/06/08 10:33:16;;;;;;;4.70;3.97;;;;;;;27.47;27.94;100964.38;7396384;19;20090;-66
2023/06/08 10:35:46;;;;;;;6.35;4.05;;;;;;;27.48;28.36;100959.81;7397322;19;20018;-67
2023/06/08 10:38:16;;;;;;;7.22;4.30;;;;;;;27.46;28.45;100957.28;7398365;19;20091;-67
2023/06/08 10:40:53;;;;;;;5.85;3.70;;;;;;;27.49;28.20;100953.44;7395400;19;20433;-67
2023/06/08 10:43:29;;;;;;;5.82;3.70;;;;;;;27.53;28.30;100954.88;7396375;19;20363;-66
2023/06/08 10:45:57;;;;;;;5.05;3.67;;;;;;;27.54;28.42;100955.72;7397059;19;20077;-66
2023/06/08 10:48:38;;;;;;;8.13;4.13;;;;;;;27.51;27.08;100953.31;7395477;19;20038;-65
2023/06/08 10:51:11;;;;;;;6.80;4.03;;;;;;;27.46;27.83;100946.50;7394444;19;20022;-65
2023/06/08 10:53:43;;;;;;;7.05;4.00;;;;;;;27.44;27.02;100953.03;7395986;19;20035;-64
2023/06/08 10:56:12;;;;;;;11.83;4.23;;;;;;;27.44;28.13;100944.94;7396921;19;20019;-66
2023/06/08 10:58:53;;;;;;;6.03;4.20;;;;;;;27.45;27.76;100942.09;7394692;19;20031;-65
2023/06/08 11:01:25;;;;;;;4.47;3.85;;;;;;;27.48;27.86;100943.66;7395172;19;20018;-65
2023/06/08 11:04:00;;;;;;;10.40;4.28;;;;;;;27.49;27.86;100945.38;7395088;19;20025;-65
2023/06/08 11:06:30;;;;;;;6.05;3.42;;;;;;;27.48;28.03;100939.13;7396076;19;20493;-67
2023/06/08 11:08:59;;;;;;;8.27;3.95;;;;;;;27.47;28.08;100940.13;7396867;19;20018;-65
2023/06/08 11:17:34;;;;;;;7.53;3.95;;;;;;;27.58;26.57;100935.59;7389241;19;20336;-63
2023/06/08 11:20:08;;;;;;;7.30;3.60;;;;;;;27.62;27.33;100937.84;7395423;19;20014;-64
2023/06/08 11:22:40;;;;;;;8.10;4.25;;;;;;;27.67;27.32;100932.06;7395649;19;20082;-65
2023/06/08 11:25:09;;;;;;;5.88;4.10;;;;;;;27.75;27.10;100923.25;7393330;19;20036;-65
2023/06/08 11:27:44;;;;;;;4.65;3.80;;;;;;;27.82;26.73;100923.56;7393411;19;20484;-64
2023/06/08 11:30:19;;;;;;;7.18;4.38;;;;;;;27.88;26.88;100917.59;7396210;19;20075;-65
2023/06/08 11:32:50;;;;;;;7.70;4.25;;;;;;;27.93;26.58;100926.97;7396139;19;20023;-64
2023/06/08 11:35:22;;;;;;;7.82;4.22;;;;;;;28.00;26.68;100916.44;7394040;19;20019;-65
2023/06/08 11:37:52;;;;;;;11.40;4.95;;;;;;;28.05;26.29;100913.34;7393658;19;20098;-64
2023/06/08 11:40:20;;;;;;;5.32;3.40;;;;;;;28.12;25.84;100904.53;7395098;19;20074;-64
2023/06/08 11:42:49;;;;;;;6.10;4.22;;;;;;;28.18;26.24;100907.66;7393501;19;20037;-64